createdAt,value
2023-07-20T00:02:13.194Z,84.08
2023-07-20T00:04:39.821Z,83.75
2023-07-20T00:07:06.545Z,83.89
2023-07-20T00:09:33.092Z,84.07
2023-07-20T00:12:01.564Z,83.89
2023-07-20T00:14:28.303Z,84.00
2023-07-20T00:16:57.449Z,84.24
2023-07-20T00:19:25.334Z,84.05
2023-07-20T00:21:52.135Z,84.37
2023-07-20T00:24:18.817Z,84.59
2023-07-20T00:26:45.540Z,84.62
2023-07-20T00:29:12.132Z,84.46
2023-07-20T00:31:38.616Z,84.57
2023-07-20T00:34:05.986Z,84.76
2023-07-20T00:36:32.802Z,84.91
2023-07-20T00:38:59.550Z,85.05
2023-07-20T00:41:30.288Z,84.85
2023-07-20T00:43:57.341Z,84.42
2023-07-20T00:46:26.267Z,84.47
2023-07-20T00:48:54.241Z,84.58
2023-07-20T00:51:22.700Z,84.63
2023-07-20T00:53:49.999Z,84.66
2023-07-20T00:56:17.136Z,84.75
2023-07-20T00:58:43.848Z,84.96
2023-07-20T01:01:10.501Z,85.11
2023-07-20T01:03:37.428Z,85.36
2023-07-20T01:06:17.597Z,85.20
2023-07-20T01:08:50.181Z,85.25
2023-07-20T01:11:37.070Z,85.30
2023-07-20T01:14:04.185Z,85.38
2023-07-20T01:16:30.709Z,85.38
2023-07-20T01:18:57.323Z,85.48
2023-07-20T01:21:38.749Z,85.36
2023-07-20T01:24:14.520Z,85.55
2023-07-20T01:26:46.976Z,85.58
2023-07-20T01:29:38.345Z,85.33
2023-07-20T01:32:08.198Z,85.28
2023-07-20T01:34:37.563Z,85.51
2023-07-20T01:37:04.883Z,85.71
2023-07-20T01:39:32.555Z,85.93
2023-07-20T01:41:59.534Z,85.63
2023-07-20T01:44:26.077Z,85.79
2023-07-20T01:46:52.472Z,85.98
2023-07-20T01:49:18.901Z,85.82
2023-07-20T01:51:45.485Z,85.69
2023-07-20T01:54:11.956Z,85.87
2023-07-20T01:56:38.968Z,85.87
2023-07-20T01:59:05.477Z,86.08
2023-07-20T02:01:32.122Z,85.98
2023-07-20T02:03:58.618Z,86.09
2023-07-20T02:06:25.559Z,86.27
2023-07-20T02:08:52.404Z,86.43
2023-07-20T02:11:18.923Z,86.03
2023-07-20T02:13:45.378Z,85.74
2023-07-20T02:16:12.539Z,86.24
2023-07-20T02:18:39.182Z,86.58
2023-07-20T02:21:06.038Z,86.62
2023-07-20T02:23:32.917Z,86.96
2023-07-20T02:25:59.404Z,86.88
2023-07-20T02:28:26.005Z,87.11
2023-07-20T02:30:52.575Z,86.86
2023-07-20T02:33:19.073Z,87.08
2023-07-20T02:35:45.682Z,87.21
2023-07-20T02:38:12.212Z,86.76
2023-07-20T02:40:38.689Z,87.03
2023-07-20T02:43:05.117Z,86.90
2023-07-20T02:45:31.655Z,86.56
2023-07-20T02:47:58.488Z,86.29
2023-07-20T02:50:25.127Z,86.10
2023-07-20T02:52:51.709Z,85.78
2023-07-20T02:55:18.241Z,85.90
2023-07-20T02:57:44.766Z,85.90
2023-07-20T03:00:12.640Z,86.18
2023-07-20T03:02:39.284Z,86.14
2023-07-20T03:05:08.474Z,85.85
2023-07-20T03:07:35.008Z,85.86
2023-07-20T03:10:01.616Z,85.93
2023-07-20T03:12:28.787Z,86.24
2023-07-20T03:14:55.274Z,86.38
2023-07-20T03:17:21.903Z,86.42
2023-07-20T03:19:48.565Z,86.35
2023-07-20T03:22:15.147Z,86.71
2023-07-20T03:24:41.677Z,86.73
2023-07-20T03:27:08.232Z,86.61
2023-07-20T03:29:34.861Z,86.97
2023-07-20T03:32:01.375Z,87.03
2023-07-20T03:34:27.852Z,87.05
2023-07-20T03:36:54.339Z,87.19
2023-07-20T03:39:20.823Z,86.93
2023-07-20T03:41:47.356Z,86.73
2023-07-20T03:44:13.919Z,86.71
2023-07-20T03:46:40.408Z,86.75
2023-07-20T03:49:07.357Z,86.99
2023-07-20T03:51:33.911Z,87.06
2023-07-20T03:54:00.629Z,87.24
2023-07-20T03:56:27.577Z,87.45
2023-07-20T03:58:54.048Z,87.42
2023-07-20T04:01:20.531Z,87.66
2023-07-20T04:03:49.839Z,87.78
2023-07-20T04:06:18.096Z,87.85
2023-07-20T04:08:45.705Z,87.54
2023-07-20T04:11:12.163Z,87.82
2023-07-20T04:13:38.684Z,87.62
2023-07-20T04:16:05.629Z,88.10
2023-07-20T04:18:32.087Z,87.94
2023-07-20T04:20:58.653Z,88.27
2023-07-20T04:23:25.137Z,88.67
2023-07-20T04:25:53.016Z,89.03
2023-07-20T04:28:19.550Z,88.83
2023-07-20T04:30:46.061Z,88.56
2023-07-20T04:33:12.618Z,88.49
2023-07-20T04:35:53.732Z,88.39
2023-07-20T04:38:21.881Z,88.51
2023-07-20T04:40:50.473Z,88.44
2023-07-20T04:43:18.435Z,88.19
2023-07-20T04:45:45.390Z,88.26
2023-07-20T04:48:13.783Z,87.89
2023-07-20T04:50:45.916Z,87.94
2023-07-20T04:53:13.636Z,87.90
2023-07-20T04:55:41.087Z,88.04
2023-07-20T04:58:08.345Z,87.70
2023-07-20T05:00:35.506Z,87.73
2023-07-20T05:03:02.680Z,87.40
2023-07-20T05:05:29.479Z,87.29
2023-07-20T05:07:56.188Z,87.22
2023-07-20T05:10:22.700Z,87.47
2023-07-20T05:12:49.343Z,87.44
2023-07-20T05:15:15.970Z,87.49
2023-07-20T05:17:42.672Z,88.03
2023-07-20T05:20:13.637Z,88.11
2023-07-20T05:22:41.170Z,87.46
2023-07-20T05:25:11.987Z,87.34
2023-07-20T05:27:39.691Z,87.49
2023-07-20T05:30:08.275Z,87.34
2023-07-20T05:32:35.412Z,86.82
2023-07-20T05:35:02.128Z,87.18
2023-07-20T05:37:28.598Z,87.67
2023-07-20T05:39:55.239Z,88.15
2023-07-20T05:42:21.710Z,89.24
2023-07-20T05:44:53.972Z,82.75
2023-07-20T05:47:20.592Z,74.84
2023-07-20T05:49:47.294Z,69.78
2023-07-20T05:52:14.397Z,65.90
2023-07-20T05:54:40.793Z,63.00
2023-07-20T05:57:07.324Z,61.33
2023-07-20T05:59:33.863Z,60.45
2023-07-20T06:02:00.338Z,58.29
2023-07-20T06:04:26.838Z,59.20
2023-07-20T06:06:53.375Z,60.17
2023-07-20T06:09:20.150Z,60.06
2023-07-20T06:11:46.744Z,58.45
2023-07-20T06:14:13.470Z,57.75
2023-07-20T06:16:40.057Z,58.53
2023-07-20T06:19:06.666Z,58.42
2023-07-20T06:21:33.301Z,60.17
2023-07-20T06:23:59.961Z,62.13
2023-07-20T06:26:26.650Z,62.68
2023-07-20T06:28:53.155Z,58.40
2023-07-20T06:31:19.800Z,57.39
2023-07-20T06:33:46.427Z,57.96
2023-07-20T06:36:13.005Z,58.09
2023-07-20T06:38:39.610Z,60.71
2023-07-20T06:46:05.484Z,64.36
2023-07-20T06:48:31.900Z,64.99
2023-07-20T06:50:58.466Z,64.23
2023-07-20T06:53:24.998Z,65.32
2023-07-20T06:55:51.871Z,66.87
2023-07-20T06:58:19.119Z,67.50
2023-07-20T07:00:46.098Z,68.25
2023-07-20T07:03:12.674Z,68.76
2023-07-20T07:05:39.466Z,68.82
2023-07-20T07:08:06.427Z,69.53
2023-07-20T07:10:34.125Z,68.69
2023-07-20T07:13:01.173Z,69.70
2023-07-20T07:15:28.748Z,70.65
2023-07-20T07:17:56.151Z,70.03
2023-07-20T07:20:22.964Z,70.80
2023-07-20T07:25:23.804Z,70.60
2023-07-20T07:27:52.526Z,68.71
2023-07-20T07:30:19.100Z,68.13
2023-07-20T07:32:45.685Z,67.98
2023-07-20T07:35:12.762Z,68.67
2023-07-20T07:37:52.065Z,69.29
2023-07-20T07:40:25.831Z,69.28
2023-07-20T07:42:52.328Z,69.32
2023-07-20T07:45:18.857Z,68.92
2023-07-20T07:47:45.412Z,69.07
2023-07-20T07:50:12.092Z,68.14
2023-07-20T07:52:38.657Z,67.78
2023-07-20T07:55:06.090Z,66.49
2023-07-20T07:57:32.653Z,66.76
2023-07-20T07:59:59.284Z,65.03
2023-07-20T08:02:25.793Z,64.49
2023-07-20T08:04:53.585Z,64.19
2023-07-20T08:07:20.278Z,62.24
2023-07-20T08:09:46.753Z,61.77
2023-07-20T08:12:14.556Z,59.12
2023-07-20T08:14:41.271Z,60.85
2023-07-20T08:17:07.916Z,61.63
2023-07-20T08:19:34.719Z,60.26
2023-07-20T08:22:01.510Z,58.93
2023-07-20T08:24:27.984Z,57.75
2023-07-20T08:26:54.563Z,56.98
2023-07-20T08:29:21.178Z,55.95
2023-07-20T08:31:47.761Z,53.38
2023-07-20T08:34:28.635Z,55.46
2023-07-20T08:36:57.129Z,53.38
2023-07-20T08:39:25.300Z,53.04
2023-07-20T08:41:54.973Z,51.62
2023-07-20T08:44:21.651Z,52.78
2023-07-20T08:46:49.181Z,51.85
2023-07-20T08:49:17.624Z,53.92
2023-07-20T08:51:46.562Z,54.20
2023-07-20T08:54:14.402Z,54.30
2023-07-20T08:56:41.992Z,53.05
2023-07-20T08:59:09.552Z,51.00
2023-07-20T09:01:38.590Z,52.59
2023-07-20T09:04:05.146Z,50.60
2023-07-20T09:06:32.171Z,51.73
2023-07-20T09:08:58.836Z,53.00
2023-07-20T09:11:26.269Z,50.69
2023-07-20T09:14:09.529Z,50.57
2023-07-20T09:16:50.540Z,47.90
2023-07-20T09:19:17.875Z,47.62
2023-07-20T09:21:49.132Z,48.25
2023-07-20T09:24:17.245Z,47.81
2023-07-20T09:26:46.231Z,48.06
2023-07-20T09:29:12.949Z,49.00
2023-07-20T09:31:41.890Z,50.22
2023-07-20T09:34:08.756Z,48.70
2023-07-20T09:39:06.864Z,44.39
2023-07-20T09:41:45.090Z,42.62
2023-07-20T09:51:43.302Z,45.54
2023-07-20T09:54:10.543Z,44.86
2023-07-20T09:56:38.933Z,44.31
2023-07-20T09:59:05.583Z,44.10
2023-07-20T10:01:33.921Z,44.40
2023-07-20T10:04:03.939Z,43.91
2023-07-20T10:06:34.437Z,42.70
2023-07-20T10:09:04.886Z,42.66
2023-07-20T10:11:35.802Z,39.37
2023-07-20T10:14:07.474Z,41.46
2023-07-20T10:16:40.442Z,41.57
2023-07-20T10:19:18.106Z,42.50
2023-07-20T10:21:51.371Z,43.84
2023-07-20T10:24:24.643Z,44.96
2023-07-20T10:26:51.537Z,43.71
2023-07-20T10:29:18.538Z,41.79
2023-07-20T10:31:45.712Z,41.51
2023-07-20T10:34:13.948Z,41.61
2023-07-20T10:36:53.188Z,40.85
2023-07-20T10:39:28.746Z,40.06
2023-07-20T10:42:08.851Z,41.21
2023-07-20T10:44:38.069Z,40.63
2023-07-20T10:47:12.425Z,41.15
2023-07-20T10:50:02.055Z,40.69
2023-07-20T10:52:38.148Z,39.91
2023-07-20T10:55:23.109Z,38.51
2023-07-20T10:58:08.142Z,38.23
2023-07-20T11:00:34.688Z,37.48
2023-07-20T11:03:01.437Z,39.06
2023-07-20T11:05:38.651Z,38.85
2023-07-20T11:08:26.206Z,37.14
2023-07-20T11:11:29.003Z,36.75
2023-07-20T11:14:03.690Z,36.25
2023-07-20T11:16:36.426Z,35.46
2023-07-20T11:19:04.745Z,37.08
2023-07-20T11:21:52.197Z,35.82
2023-07-20T11:24:27.661Z,38.61
2023-07-20T11:26:55.363Z,37.32
2023-07-20T11:29:31.176Z,35.06
2023-07-20T11:32:00.559Z,35.32
2023-07-20T11:34:28.552Z,36.20
2023-07-20T11:39:26.657Z,35.10
2023-07-20T11:41:55.534Z,36.10
2023-07-20T11:44:29.828Z,35.00
2023-07-20T11:47:08.482Z,35.30
2023-07-20T11:49:44.998Z,34.01
2023-07-20T11:52:14.771Z,34.54
2023-07-20T11:54:43.633Z,34.00
2023-07-20T11:57:21.635Z,33.91
2023-07-20T11:59:59.088Z,34.53
2023-07-20T12:02:28.600Z,37.26
2023-07-20T12:04:55.633Z,34.48
2023-07-20T12:07:22.697Z,34.71
2023-07-20T12:10:08.999Z,33.75
2023-07-20T12:12:38.834Z,34.56
2023-07-20T12:15:17.152Z,34.82
2023-07-20T12:17:48.233Z,34.30
2023-07-20T12:20:25.348Z,34.32
2023-07-20T12:22:51.807Z,31.01
2023-07-20T12:25:21.035Z,32.78
2023-07-20T12:27:49.563Z,33.88
2023-07-20T12:30:16.182Z,34.65
2023-07-20T12:32:43.152Z,36.36
2023-07-20T12:35:09.865Z,37.14
2023-07-20T12:37:36.506Z,36.87
2023-07-20T12:40:03.502Z,37.64
2023-07-20T12:42:29.979Z,36.22
2023-07-20T12:44:56.436Z,37.24
2023-07-20T12:47:23.769Z,37.97
2023-07-20T12:49:50.318Z,35.46
2023-07-20T12:52:16.854Z,35.76
2023-07-20T12:54:43.391Z,37.01
2023-07-20T12:59:39.270Z,36.95
2023-07-20T13:02:06.451Z,39.97
2023-07-20T13:04:33.049Z,39.03
2023-07-20T13:07:00.478Z,39.03
2023-07-20T13:09:27.596Z,39.02
2023-07-20T13:11:54.272Z,37.58
2023-07-20T13:14:20.762Z,37.82
2023-07-20T13:16:47.380Z,38.91
2023-07-20T13:19:14.054Z,41.05
2023-07-20T13:21:40.594Z,40.90
2023-07-20T13:24:07.177Z,38.21
2023-07-20T13:26:33.662Z,38.68
2023-07-20T13:29:00.347Z,39.12
2023-07-20T13:31:27.460Z,38.60
2023-07-20T13:33:58.025Z,36.46
2023-07-20T13:36:27.231Z,36.53
2023-07-20T13:38:54.789Z,35.33
2023-07-20T13:41:21.661Z,37.76
2023-07-20T13:43:48.388Z,34.76
2023-07-20T13:46:16.711Z,37.35
2023-07-20T13:48:44.090Z,36.02
2023-07-20T13:51:10.650Z,35.45
2023-07-20T13:58:35.987Z,38.96
2023-07-20T14:01:02.620Z,38.18
2023-07-20T14:03:29.209Z,37.33
2023-07-20T14:08:25.123Z,37.74
2023-07-20T14:13:26.086Z,40.16
2023-07-20T14:15:57.724Z,38.41
2023-07-20T14:18:24.364Z,38.82
2023-07-20T14:20:51.115Z,39.15
2023-07-20T14:23:17.551Z,40.24
2023-07-20T14:25:44.200Z,41.08
2023-07-20T14:28:10.876Z,41.53
2023-07-20T14:30:37.412Z,42.29
2023-07-20T14:33:03.920Z,43.02
2023-07-20T14:35:30.593Z,41.09
2023-07-20T14:37:57.474Z,40.03
2023-07-20T14:40:24.153Z,38.92
2023-07-20T14:42:50.828Z,38.85
2023-07-20T14:45:17.308Z,38.60
2023-07-20T14:47:44.205Z,40.36
2023-07-20T14:50:11.695Z,41.30
2023-07-20T14:52:49.159Z,41.04
2023-07-20T14:55:16.412Z,40.89
2023-07-20T14:57:42.888Z,41.52
2023-07-20T15:00:11.577Z,39.82
2023-07-20T15:02:38.799Z,39.21
2023-07-20T15:05:08.339Z,38.09
2023-07-20T15:07:36.213Z,39.38
2023-07-20T15:10:03.562Z,39.87
2023-07-20T15:12:29.962Z,38.28
2023-07-20T15:15:10.671Z,40.52
2023-07-20T15:17:38.896Z,39.81
2023-07-20T15:20:06.915Z,40.05
2023-07-20T15:22:34.577Z,40.02
2023-07-20T15:25:01.775Z,40.03
2023-07-20T15:27:28.205Z,40.09
2023-07-20T15:29:54.846Z,42.01
2023-07-20T15:32:21.379Z,42.64
2023-07-20T15:34:48.230Z,42.35
2023-07-20T15:37:14.775Z,42.12
2023-07-20T15:39:42.360Z,43.53
2023-07-20T15:42:09.283Z,44.04
2023-07-20T15:44:36.125Z,43.19
2023-07-20T15:47:03.772Z,42.00
2023-07-20T15:49:33.165Z,43.14
2023-07-20T15:52:00.860Z,43.84
2023-07-20T15:54:27.307Z,43.50
2023-07-20T15:56:54.685Z,44.11
2023-07-20T15:59:21.308Z,44.51
2023-07-20T16:01:47.873Z,44.75
2023-07-20T16:04:16.111Z,44.80
2023-07-20T16:06:42.942Z,45.75
2023-07-20T16:09:09.937Z,45.78
2023-07-20T16:11:38.185Z,45.40
2023-07-20T16:14:07.083Z,43.42
2023-07-20T16:16:35.758Z,43.98
2023-07-20T16:19:02.314Z,44.95
2023-07-20T16:21:28.810Z,44.23
2023-07-20T16:23:55.379Z,44.69
2023-07-20T16:26:21.874Z,44.23
2023-07-20T16:28:48.383Z,43.00
2023-07-20T16:31:16.775Z,45.48
2023-07-20T16:33:46.134Z,46.43
2023-07-20T16:36:15.453Z,47.28
2023-07-20T16:38:44.484Z,46.41
2023-07-20T16:41:12.585Z,46.70
2023-07-20T16:51:10.613Z,47.95
2023-07-20T16:53:37.118Z,46.70
2023-07-20T16:56:03.822Z,48.37
2023-07-20T16:58:30.402Z,47.97
2023-07-20T17:01:07.776Z,48.20
2023-07-20T17:03:36.813Z,47.90
2023-07-20T17:06:05.773Z,47.19
2023-07-20T17:08:32.562Z,46.63
2023-07-20T17:10:59.193Z,47.40
2023-07-20T17:13:25.702Z,48.47
2023-07-20T17:15:52.290Z,48.70
2023-07-20T17:18:19.594Z,48.71
2023-07-20T17:24:00.672Z,48.75
2023-07-20T17:31:03.672Z,49.64
2023-07-20T17:33:30.240Z,49.69
2023-07-20T17:37:16.792Z,49.82
2023-07-20T17:38:43.427Z,50.07
2023-07-20T17:41:20.789Z,50.73
2023-07-20T17:43:47.319Z,50.38
2023-07-20T17:48:43.694Z,50.03
2023-07-20T17:51:10.442Z,50.35
2023-07-20T17:53:36.985Z,51.21
2023-07-20T17:56:03.617Z,51.40
2023-07-20T17:58:31.252Z,51.85
2023-07-20T18:01:01.986Z,51.37
2023-07-20T18:03:28.995Z,51.42
2023-07-20T18:05:56.931Z,51.07
2023-07-20T18:08:24.568Z,51.72
2023-07-20T18:10:51.326Z,51.80
2023-07-20T18:13:17.820Z,52.40
2023-07-20T18:15:44.321Z,52.32
2023-07-20T18:18:10.895Z,52.90
2023-07-20T18:20:37.700Z,52.38
2023-07-20T18:23:07.063Z,52.41
2023-07-20T18:25:33.499Z,52.23
2023-07-20T18:27:59.945Z,51.67
2023-07-20T18:30:33.744Z,51.48
2023-07-20T18:33:00.523Z,52.23
2023-07-20T18:35:27.567Z,52.18
2023-07-20T18:37:54.095Z,52.12
2023-07-20T18:40:20.712Z,52.39
2023-07-20T18:42:47.972Z,51.96
2023-07-20T18:45:14.905Z,52.60
2023-07-20T18:47:41.905Z,52.39
2023-07-20T18:50:10.455Z,53.17
2023-07-20T18:52:37.006Z,53.11
2023-07-20T18:55:03.569Z,53.64
2023-07-20T18:57:32.361Z,53.37
2023-07-20T18:59:59.262Z,53.42
2023-07-20T19:02:25.891Z,53.19
2023-07-20T19:04:53.350Z,53.65
2023-07-20T19:07:20.327Z,53.76
2023-07-20T19:09:47.179Z,54.16
2023-07-20T19:12:14.805Z,54.38
2023-07-20T19:14:41.395Z,54.55
2023-07-20T19:17:08.501Z,54.77
2023-07-20T19:19:34.950Z,54.97
2023-07-20T19:22:01.540Z,54.97
2023-07-20T19:24:28.502Z,55.16
2023-07-20T19:26:55.040Z,55.57
2023-07-20T19:29:21.578Z,55.79
2023-07-20T19:31:48.103Z,55.68
2023-07-20T19:34:14.540Z,55.64
2023-07-20T19:36:41.034Z,55.92
2023-07-20T19:39:07.531Z,56.21
2023-07-20T19:41:34.043Z,56.54
2023-07-20T19:44:00.520Z,56.52
2023-07-20T19:46:27.219Z,56.76
2023-07-20T19:48:54.050Z,57.35
2023-07-20T19:51:20.496Z,57.21
2023-07-20T19:56:17.799Z,57.46
2023-07-20T19:58:44.315Z,58.01
2023-07-20T20:03:41.193Z,58.22
2023-07-20T20:06:10.851Z,58.29
2023-07-20T20:08:37.872Z,58.41
2023-07-20T20:13:33.867Z,58.99
2023-07-20T20:16:00.493Z,59.04
2023-07-20T20:18:29.644Z,59.18
2023-07-20T20:21:00.082Z,59.53
2023-07-20T20:23:26.542Z,59.66
2023-07-20T20:25:53.760Z,59.61
2023-07-20T20:28:20.368Z,59.68
2023-07-20T20:30:49.980Z,60.17
2023-07-20T20:33:18.440Z,60.30
2023-07-20T20:35:52.428Z,60.62
2023-07-20T20:38:20.183Z,60.89
2023-07-20T20:40:47.329Z,61.06
2023-07-20T20:43:14.318Z,61.64
2023-07-20T20:45:41.000Z,61.73
2023-07-20T20:48:08.653Z,62.49
2023-07-20T20:50:36.682Z,62.71
2023-07-20T20:53:04.214Z,63.10
2023-07-20T20:55:31.602Z,62.89
2023-07-20T20:57:58.617Z,63.54
2023-07-20T21:00:25.478Z,63.66
2023-07-20T21:02:53.663Z,63.45
2023-07-20T21:05:20.354Z,63.79
2023-07-20T21:07:46.937Z,63.83
2023-07-20T21:10:13.431Z,63.79
2023-07-20T21:12:40.081Z,64.12
2023-07-20T21:15:07.646Z,64.81
2023-07-20T21:17:34.403Z,64.88
2023-07-20T21:20:00.978Z,64.96
2023-07-20T21:22:27.479Z,65.73
2023-07-20T21:24:54.021Z,66.18
2023-07-20T21:27:20.700Z,66.13
2023-07-20T21:29:47.601Z,66.71
2023-07-20T21:32:14.521Z,66.71
2023-07-20T21:34:41.030Z,66.73
2023-07-20T21:37:07.499Z,66.75
2023-07-20T21:39:33.989Z,67.03
2023-07-20T21:42:00.489Z,66.97
2023-07-20T21:44:27.115Z,66.91
2023-07-20T21:46:53.981Z,67.35
2023-07-20T21:49:20.536Z,67.64
2023-07-20T21:51:47.090Z,67.98
2023-07-20T21:54:13.610Z,68.16
2023-07-20T21:56:40.068Z,67.86
2023-07-20T21:59:06.569Z,68.11
2023-07-20T22:01:57.709Z,68.04
2023-07-20T22:04:19.931Z,67.80
2023-07-20T22:06:49.744Z,67.77
2023-07-20T22:09:16.397Z,67.55
2023-07-20T22:11:43.040Z,67.62
2023-07-20T22:14:10.772Z,67.66
2023-07-20T22:16:37.279Z,67.72
2023-07-20T22:19:03.908Z,67.69
2023-07-20T22:21:30.420Z,68.06
2023-07-20T22:23:56.977Z,68.58
2023-07-20T22:26:25.532Z,68.85
2023-07-20T22:28:52.299Z,68.86
2023-07-20T22:31:19.069Z,68.74
2023-07-20T22:33:45.632Z,68.87
2023-07-20T22:36:12.631Z,69.03
2023-07-20T22:38:39.118Z,69.25
2023-07-20T22:41:05.696Z,69.06
2023-07-20T22:43:32.307Z,69.69
2023-07-20T22:45:58.903Z,70.24
2023-07-20T22:48:28.656Z,70.32
2023-07-20T22:50:58.452Z,70.57
2023-07-20T22:53:26.959Z,70.44
2023-07-20T22:55:53.460Z,70.78
2023-07-20T22:58:19.963Z,71.07
2023-07-20T23:00:46.715Z,71.41
2023-07-20T23:03:13.423Z,71.63
2023-07-20T23:05:39.996Z,72.21
2023-07-20T23:08:06.442Z,72.24
2023-07-20T23:10:32.947Z,72.55
2023-07-20T23:13:00.670Z,72.67
2023-07-20T23:15:27.169Z,73.06
2023-07-20T23:17:53.689Z,72.80
2023-07-20T23:20:20.400Z,72.62
2023-07-20T23:22:51.313Z,72.53
2023-07-20T23:25:22.372Z,72.83
2023-07-20T23:27:49.973Z,72.79
2023-07-20T23:30:16.767Z,73.48
2023-07-20T23:32:45.332Z,73.59
2023-07-20T23:35:12.104Z,73.50
2023-07-20T23:37:39.818Z,73.73
2023-07-20T23:40:13.727Z,74.24
2023-07-20T23:42:41.221Z,74.22
2023-07-20T23:45:09.894Z,74.47
2023-07-20T23:47:37.531Z,74.05
2023-07-20T23:50:07.428Z,74.31
2023-07-20T23:52:35.519Z,74.47
2023-07-20T23:55:07.464Z,74.45
2023-07-20T23:57:34.900Z,74.40
